Aérodrome :
LOGIN :

S'inscrire | Disclaimer

   EN    FR    IT 

 










Légende :    VFR   VFR Marginal   IFR   IFR Intensif   IFR Très Intensif
Visi : 
Plafond : 
>= 8 km
>= 3000ft
5 à 8 km
1000 à 3000 ft
1500m à 5 km
500 à 1000 ft
800 à 1500m
200 à 500 ft
< 800m
< 200 ft
Symboles :   Orages  Brouillard  Fortes neiges  Fortes précipitations  Vent > 20 kt
SIGMETs :   Divers  Orages  Givrage  Turbulence  Onde Orograph.  Cendres Volcan.







- Altitude de l'aérodrome : 302 ft
- Code IATA : CGN


EDDK - Cologne Bonn

DERNIER METAR :
  • 270120Z 09001KT CAVOK 17/10 Q1011 NOSIG

METARs EXPIRÉS :
  • 270050Z 08003KT 030V180 CAVOK 17/10 Q1011 NOSIG
  • 270020Z 08004KT 040V120 CAVOK 17/10 Q1011 NOSIG
  • 270003Z 07007KT CAVOK 17/09 Q1011 NOSIG
  • 262350Z 07007KT CAVOK 17/09 Q1011 NOSIG
  • 262320Z 06007KT CAVOK 17/09 Q1012 NOSIG
  • 262250Z 06007KT CAVOK 17/09 Q1012 NOSIG

TAF TAF EDDK
Valide du 27 à 00h jusqu'au 28 à 06h UTC


262300Z 2700/2806 09007KT 9999 BKN040
TEMPO 2714/2806 SHRA BKN040CB
PROB30
TEMPO 2716/2803 3000 TSRA BKN014CB
Pas de NOTAMs connus pour ce terrain.
1 SIGMET publié pour la FIR Langen (EDGG) :
 
Orages noyés dans la masse
EDGG SIGMET 2 VALID 262200/270100 EDZF
EDGG LANGEN FIR EMBD TS FCST SW OF LINE N4930 E00630 - N4845 E00945 TOP FL390 MOV NE NC=



MET'MAP, la Météo Aéronautique d'un coup d'oeil ! - Copyright ORBIFLY Décembre 2007 - Disclaimer

ORBIFLY MET'MAP TEAM :

Programmation & Développement : Alexandra Zaïnal
Conception & Développement : Baudouin d'Aumeries
Co-Programmation & Développement : Marc-Olivier Méhu
Soutien technique & logistique : Manuel Goepfert

Contact : metmap@orbifly.com




SOURCES & CREDITS :

   NOAA